Time;durP1;ratioP1;P1;durP2;ratioP2;P2;SDS_P1;SDS_P2;PMS_P1;PMS_P2;Temp;Humidity;BMP_temperature;BMP_pressure;BME280_temperature;BME280_humidity;BME280_pressure;Samples;Min_cycle;Max_cycle;Signal;HPM_P1;HPM_P2
2022/12/07 00:00:15;;;;;;;1999.90;999.90;;;;;;;4.02;100.00;97772.63;5055327;28;20370;-84
2022/12/07 00:02:40;;;;;;;1999.90;999.90;;;;;;;4.04;100.00;97773.16;5054553;28;20548;-78
2022/12/07 00:05:06;;;;;;;1999.90;999.90;;;;;;;4.11;100.00;97771.06;5054467;28;20147;-81
2022/12/07 00:07:31;;;;;;;1999.90;999.90;;;;;;;4.15;100.00;97776.78;5054810;28;20533;-79
2022/12/07 00:09:56;;;;;;;1999.90;999.90;;;;;;;4.16;100.00;97776.53;5055356;28;20363;-80
2022/12/07 00:12:22;;;;;;;1999.90;999.90;;;;;;;4.12;100.00;97769.19;5055960;28;20029;-79
2022/12/07 00:14:47;;;;;;;1999.90;999.90;;;;;;;4.10;100.00;97774.03;5054698;28;20029;-81
2022/12/07 00:17:12;;;;;;;1999.90;999.90;;;;;;;4.02;100.00;97759.09;5054908;28;20131;-78
2022/12/07 00:19:37;;;;;;;1999.90;999.90;;;;;;;4.14;100.00;97764.31;5053926;28;20470;-79
2022/12/07 00:22:03;;;;;;;1999.90;999.90;;;;;;;4.21;100.00;97770.31;5054001;28;20051;-77
2022/12/07 00:24:28;;;;;;;1999.90;999.90;;;;;;;4.21;100.00;97768.44;5056075;28;20039;-77
2022/12/07 00:26:53;;;;;;;1999.90;999.90;;;;;;;4.07;100.00;97752.91;5054915;28;20489;-78
2022/12/07 00:29:21;;;;;;;1999.90;999.90;;;;;;;4.12;100.00;97766.47;5053455;28;20076;-77
2022/12/07 00:31:46;;;;;;;1999.90;999.90;;;;;;;4.11;100.00;97764.84;5053510;28;20017;-78
2022/12/07 00:34:16;;;;;;;1999.90;999.90;;;;;;;4.03;100.00;97752.59;5053087;28;20108;-77
2022/12/07 00:36:42;;;;;;;1999.90;999.90;;;;;;;4.09;100.00;97746.16;5053576;28;20052;-77
2022/12/07 00:39:08;;;;;;;1999.90;999.90;;;;;;;4.10;100.00;97745.06;5053517;28;20056;-78
2022/12/07 00:41:33;;;;;;;1999.90;999.90;;;;;;;4.11;100.00;97743.19;5053683;28;20029;-77
2022/12/07 00:43:59;;;;;;;1999.90;999.90;;;;;;;4.27;100.00;97748.44;5053343;28;20039;-79
2022/12/07 00:46:25;;;;;;;1999.90;999.90;;;;;;;4.33;100.00;97749.31;5053840;28;20651;-77
2022/12/07 00:48:52;;;;;;;1999.90;999.90;;;;;;;4.32;100.00;97737.66;5053361;28;20021;-77
2022/12/07 00:51:21;;;;;;;1999.90;999.90;;;;;;;4.34;100.00;97742.81;5053450;28;20021;-81
2022/12/07 00:53:47;;;;;;;1999.90;999.90;;;;;;;4.37;100.00;97736.88;5052138;28;20025;-78
2022/12/07 00:56:15;;;;;;;1999.90;999.90;;;;;;;4.32;100.00;97726.03;5053163;28;20017;-80
2022/12/07 00:58:41;;;;;;;1999.90;999.90;;;;;;;4.42;100.00;97736.13;5051673;28;20032;-80
2022/12/07 01:01:08;;;;;;;1999.90;999.90;;;;;;;4.43;100.00;97743.97;5052737;28;20029;-77
2022/12/07 01:03:34;;;;;;;1999.90;999.90;;;;;;;4.40;100.00;97741.78;5051582;28;20118;-77
2022/12/07 01:06:00;;;;;;;1999.90;999.90;;;;;;;4.41;100.00;97742.59;5052693;28;20099;-77
2022/12/07 01:08:26;;;;;;;1999.90;999.90;;;;;;;4.53;100.00;97754.03;5052655;28;20055;-77
2022/12/07 01:11:04;;;;;;;1999.90;999.90;;;;;;;4.48;100.00;97749.41;5052667;28;20125;-76
2022/12/07 01:13:30;;;;;;;1999.90;999.90;;;;;;;4.46;100.00;97745.31;5052453;28;20032;-78
2022/12/07 01:16:00;;;;;;;1999.90;999.90;;;;;;;4.44;100.00;97747.47;5052137;28;20504;-77
2022/12/07 01:18:30;;;;;;;1999.90;999.90;;;;;;;4.37;100.00;97744.19;5053579;28;20040;-79
2022/12/07 01:21:03;;;;;;;1999.90;999.90;;;;;;;4.48;100.00;97751.31;5053248;28;20075;-79
2022/12/07 01:23:29;;;;;;;1999.90;999.90;;;;;;;4.38;100.00;97748.53;5051396;28;20375;-77
2022/12/07 01:25:56;;;;;;;1999.90;999.90;;;;;;;4.39;100.00;97747.44;5052455;28;20049;-78
2022/12/07 01:28:22;;;;;;;1999.90;999.90;;;;;;;4.43;100.00;97746.66;5052352;28;20107;-77
2022/12/07 01:31:06;;;;;;;1999.90;999.90;;;;;;;4.41;100.00;97746.13;5052139;28;20073;-78
2022/12/07 01:33:34;;;;;;;1999.90;999.90;;;;;;;4.38;100.00;97738.53;5052104;28;20543;-80
2022/12/07 01:36:04;;;;;;;1999.90;999.90;;;;;;;4.44;100.00;97742.06;5052199;28;20028;-78
2022/12/07 01:38:31;;;;;;;1999.90;999.90;;;;;;;4.38;100.00;97735.00;5051931;28;20032;-78
2022/12/07 01:40:58;;;;;;;1999.90;999.90;;;;;;;4.52;100.00;97741.56;5051942;28;20378;-78
2022/12/07 01:43:26;;;;;;;1999.90;999.90;;;;;;;4.54;100.00;97734.81;5051968;28;20044;-80
2022/12/07 01:45:52;;;;;;;1999.90;999.90;;;;;;;4.53;100.00;97735.91;5052717;28;20652;-79
2022/12/07 01:48:21;;;;;;;1999.90;999.90;;;;;;;4.44;100.00;97729.34;5055931;28;20028;-78
2022/12/07 01:50:51;;;;;;;1999.90;999.90;;;;;;;4.45;100.00;97732.88;5054261;28;20040;-79
2022/12/07 01:53:17;;;;;;;1999.90;999.90;;;;;;;4.41;100.00;97731.75;5051868;28;20025;-81
2022/12/07 01:55:47;;;;;;;1999.90;999.90;;;;;;;4.46;100.00;97738.03;5051406;28;20107;-77
2022/12/07 01:58:14;;;;;;;1999.90;999.90;;;;;;;4.38;100.00;97732.28;5051449;28;20489;-76
2022/12/07 02:00:40;;;;;;;1999.90;999.90;;;;;;;4.39;100.00;97732.00;5051669;28;20044;-79
2022/12/07 02:03:11;;;;;;;1999.90;999.90;;;;;;;4.45;100.00;97735.59;5051469;28;20029;-78
2022/12/07 02:05:40;;;;;;;1999.90;999.90;;;;;;;4.37;100.00;97733.34;5051326;28;20512;-77
2022/12/07 02:08:06;;;;;;;1999.90;999.90;;;;;;;4.41;100.00;97739.88;5051197;28;20041;-79
2022/12/07 02:10:32;;;;;;;1999.90;999.90;;;;;;;4.35;100.00;97735.50;5051743;28;20031;-79
2022/12/07 02:13:12;;;;;;;1999.90;999.90;;;;;;;4.48;100.00;97743.97;5050987;28;20044;-76
2022/12/07 02:15:40;;;;;;;1999.90;999.90;;;;;;;4.40;100.00;97732.84;5050080;28;20493;-78
2022/12/07 02:18:36;;;;;;;1999.90;999.90;;;;;;;4.34;100.00;97715.75;5051668;28;20037;-77
2022/12/07 02:21:40;;;;;;;1999.90;999.90;;;;;;;4.35;100.00;97724.69;5051162;28;20470;-78
2022/12/07 02:24:39;;;;;;;1999.90;999.90;;;;;;;4.48;100.00;97729.66;5051203;28;20068;-76
2022/12/07 02:27:50;;;;;;;1999.90;999.90;;;;;;;4.49;100.00;97733.97;5030101;28;20127;-78
2022/12/07 02:30:20;;;;;;;1999.90;999.90;;;;;;;4.51;100.00;97715.59;4992965;28;20037;-78
2022/12/07 02:33:05;;;;;;;1999.90;999.90;;;;;;;4.56;100.00;97723.72;4993385;28;20030;-77
2022/12/07 02:35:49;;;;;;;1999.90;999.90;;;;;;;4.56;100.00;97727.25;5035628;28;20102;-78
2022/12/07 02:38:22;;;;;;;1999.90;999.90;;;;;;;4.54;100.00;97712.34;5051378;28;20040;-79
2022/12/07 02:41:13;;;;;;;1999.90;999.90;;;;;;;4.60;100.00;97719.44;5050931;28;20840;-77
2022/12/07 02:43:44;;;;;;;1999.90;999.90;;;;;;;4.50;100.00;97719.38;5034665;28;20044;-77
2022/12/07 02:46:17;;;;;;;1999.90;999.90;;;;;;;4.45;100.00;97714.72;5051149;28;20390;-77
2022/12/07 02:48:43;;;;;;;1999.90;999.90;;;;;;;4.47;100.00;97714.47;5051109;28;20108;-77
2022/12/07 02:51:08;;;;;;;1999.90;999.90;;;;;;;4.48;100.00;97711.47;5052249;28;20023;-79
2022/12/07 02:53:42;;;;;;;1999.90;999.90;;;;;;;4.57;100.00;97718.06;5049944;28;20544;-77
2022/12/07 02:56:20;;;;;;;1999.90;999.90;;;;;;;4.55;100.00;97703.13;5050787;28;20029;-80
2022/12/07 02:59:01;;;;;;;1999.90;999.90;;;;;;;4.54;100.00;97712.34;5050957;28;20025;-77
2022/12/07 03:01:32;;;;;;;1999.90;999.90;;;;;;;4.47;100.00;97709.06;5050010;28;20081;-78
2022/12/07 03:04:13;;;;;;;1999.90;999.90;;;;;;;4.46;100.00;97702.00;5052782;28;20044;-79
2022/12/07 03:06:46;;;;;;;1999.90;999.90;;;;;;;4.47;100.00;97704.47;5053451;28;20504;-80
2022/12/07 03:09:20;;;;;;;1999.90;999.90;;;;;;;4.57;100.00;97709.13;5052778;28;20115;-77
2022/12/07 03:11:51;;;;;;;1999.90;999.90;;;;;;;4.52;100.00;97695.53;5050907;28;20120;-76
2022/12/07 03:14:19;;;;;;;1999.90;999.90;;;;;;;4.60;100.00;97708.59;5049585;28;20083;-76
2022/12/07 03:16:54;;;;;;;1999.90;999.90;;;;;;;4.47;100.00;97687.41;5051206;28;20056;-80
2022/12/07 03:19:22;;;;;;;1999.90;999.90;;;;;;;4.53;100.00;97700.69;5050624;28;20112;-78
2022/12/07 03:21:54;;;;;;;1999.90;999.90;;;;;;;4.53;100.00;97689.03;5050792;28;20024;-78
2022/12/07 03:24:24;;;;;;;1999.90;999.90;;;;;;;4.54;100.00;97693.41;5053468;28;20505;-77
2022/12/07 03:26:55;;;;;;;1999.90;999.90;;;;;;;4.49;100.00;97686.03;5054484;28;20052;-79
2022/12/07 03:29:31;;;;;;;1999.90;999.90;;;;;;;4.48;100.00;97684.41;5054390;28;20025;-77
2022/12/07 03:32:14;;;;;;;1999.90;999.90;;;;;;;4.45;100.00;97673.31;5054530;28;20166;-79
2022/12/07 03:35:00;;;;;;;1999.90;999.90;;;;;;;4.39;100.00;97668.91;5054337;28;20033;-77
2022/12/07 03:37:41;;;;;;;1999.90;999.90;;;;;;;4.39;100.00;97664.31;5054423;28;20089;-78
2022/12/07 03:40:12;;;;;;;1999.90;999.90;;;;;;;4.43;100.00;97664.63;5054500;28;20032;-80
2022/12/07 03:42:38;;;;;;;1999.90;999.90;;;;;;;4.36;100.00;97664.03;5054564;28;20025;-77
2022/12/07 03:45:06;;;;;;;1999.90;999.90;;;;;;;4.35;100.00;97667.84;5054404;28;20087;-77
2022/12/07 03:47:36;;;;;;;1999.90;999.90;;;;;;;4.42;100.00;97663.78;5054585;28;20032;-78
2022/12/07 03:50:14;;;;;;;1999.90;999.90;;;;;;;4.45;100.00;97673.31;5054120;28;20029;-77
2022/12/07 03:52:58;;;;;;;1999.90;999.90;;;;;;;4.36;100.00;97672.16;5054252;28;20025;-77
2022/12/07 03:55:32;;;;;;;1999.90;999.90;;;;;;;4.35;100.00;97676.78;5055255;28;20120;-80
2022/12/07 03:58:14;;;;;;;1999.90;999.90;;;;;;;4.34;100.00;97661.59;5058989;28;20476;-77
2022/12/07 04:00:42;;;;;;;1999.90;999.90;;;;;;;4.37;100.00;97662.97;5054620;28;20033;-77
2022/12/07 04:03:07;;;;;;;1999.90;999.90;;;;;;;4.44;100.00;97666.25;5054487;28;20132;-77
2022/12/07 04:05:33;;;;;;;1999.90;999.90;;;;;;;4.45;100.00;97659.78;5054107;28;20049;-79
2022/12/07 04:07:58;;;;;;;1999.90;999.90;;;;;;;4.48;100.00;97665.44;5053901;28;20025;-82
2022/12/07 04:10:24;;;;;;;1999.90;999.90;;;;;;;4.45;100.00;97662.47;5053870;28;20025;-78
2022/12/07 04:12:49;;;;;;;1999.90;999.90;;;;;;;4.34;100.00;97669.72;5053904;28;20100;-78
2022/12/07 04:15:14;;;;;;;1999.90;999.90;;;;;;;4.44;100.00;97672.50;5053697;28;20033;-80
2022/12/07 04:17:40;;;;;;;1999.90;999.90;;;;;;;4.48;100.00;97672.78;5054063;28;20047;-77
2022/12/07 04:20:07;;;;;;;1999.90;999.90;;;;;;;4.51;100.00;97678.47;5054573;28;20037;-78
2022/12/07 04:22:32;;;;;;;1999.90;999.90;;;;;;;4.43;100.00;97670.03;5055260;28;20083;-78
2022/12/07 04:24:58;;;;;;;1999.90;999.90;;;;;;;4.39;100.00;97663.50;5053590;28;20433;-78
2022/12/07 04:27:23;;;;;;;1999.90;999.90;;;;;;;4.37;100.00;97660.25;5053199;28;20039;-77
2022/12/07 04:29:48;;;;;;;1999.90;999.90;;;;;;;4.36;100.00;97658.63;5053170;28;20079;-76
2022/12/07 04:32:14;;;;;;;1999.90;999.90;;;;;;;4.48;100.00;97667.38;5053680;28;21016;-77
2022/12/07 04:34:39;;;;;;;1999.90;999.90;;;;;;;4.32;100.00;97653.72;5052928;28;20029;-79
2022/12/07 04:37:04;;;;;;;1999.90;999.90;;;;;;;4.32;100.00;97669.97;5053501;28;20037;-78
2022/12/07 04:39:32;;;;;;;1999.90;999.90;;;;;;;4.25;100.00;97660.47;5053899;28;20021;-79
2022/12/07 04:41:58;;;;;;;1999.90;999.90;;;;;;;4.25;100.00;97658.59;5053407;28;20025;-78
2022/12/07 04:44:25;;;;;;;1999.90;999.90;;;;;;;4.36;100.00;97669.44;5054314;28;20441;-75
2022/12/07 04:46:51;;;;;;;1999.90;999.90;;;;;;;4.27;100.00;97651.00;5052029;28;20029;-75
2022/12/07 04:49:18;;;;;;;1999.90;999.90;;;;;;;4.35;100.00;97648.88;5053657;28;20099;-80
2022/12/07 04:51:44;;;;;;;1999.90;999.90;;;;;;;4.41;100.00;97656.78;5055202;28;20025;-83
2022/12/07 04:54:10;;;;;;;1999.90;999.90;;;;;;;4.29;100.00;97653.47;5047700;28;20037;-80
2022/12/07 04:56:35;;;;;;;1999.90;999.90;;;;;;;4.32;100.00;97642.91;5034163;28;20021;-79
2022/12/07 04:59:02;;;;;;;1999.90;999.90;;;;;;;4.24;100.00;97627.19;5032841;28;20518;-81
2022/12/07 05:01:28;;;;;;;1999.90;999.90;;;;;;;4.37;100.00;97650.25;5035664;28;20051;-82
2022/12/07 05:03:53;;;;;;;1999.90;999.90;;;;;;;4.24;100.00;97629.06;5034945;28;20112;-79
2022/12/07 05:06:19;;;;;;;1999.90;999.90;;;;;;;4.32;100.00;97631.28;5033243;28;20069;-80
2022/12/07 05:08:44;;;;;;;1999.90;999.90;;;;;;;4.31;100.00;97641.28;5031799;28;20053;-81
2022/12/07 05:13:55;;;;;;;1999.90;999.90;;;;;;;4.28;100.00;97641.81;5054698;28;20089;-78
2022/12/07 05:16:21;;;;;;;1999.90;999.90;;;;;;;4.31;100.00;97637.75;5053224;28;20035;-78
2022/12/07 05:18:46;;;;;;;1999.90;999.90;;;;;;;4.32;100.00;97648.31;5052889;28;20025;-80
2022/12/07 05:21:12;;;;;;;1999.90;999.90;;;;;;;4.29;100.00;97635.31;5052973;28;20030;-79
2022/12/07 05:23:37;;;;;;;1999.90;999.90;;;;;;;4.27;100.00;97642.88;5052383;28;20029;-78
2022/12/07 05:26:02;;;;;;;1999.90;999.90;;;;;;;4.28;100.00;97649.13;5053002;28;20031;-81
2022/12/07 05:28:28;;;;;;;1999.90;999.90;;;;;;;4.28;100.00;97647.22;5052328;28;20025;-77
2022/12/07 05:30:53;;;;;;;1999.90;999.90;;;;;;;4.34;100.00;97648.06;5034204;28;20061;-76
2022/12/07 05:33:18;;;;;;;1999.90;999.90;;;;;;;4.29;100.00;97642.63;5051613;28;20462;-79
2022/12/07 05:35:44;;;;;;;1999.90;999.90;;;;;;;4.25;100.00;97642.34;5055308;28;20504;-82
2022/12/07 05:38:09;;;;;;;1999.90;999.90;;;;;;;4.27;100.00;97655.59;5056395;28;20036;-79
2022/12/07 05:40:36;;;;;;;1999.90;999.90;;;;;;;4.35;100.00;97657.00;5056799;28;20055;-82
2022/12/07 05:43:01;;;;;;;1999.90;999.90;;;;;;;4.30;100.00;97647.78;5055922;28;20128;-80
2022/12/07 05:45:26;;;;;;;1999.90;999.90;;;;;;;4.30;100.00;97645.06;5060938;28;20504;-84
2022/12/07 05:47:52;;;;;;;1999.90;999.90;;;;;;;4.29;100.00;97642.63;5059738;28;20047;-83
2022/12/07 05:50:17;;;;;;;1999.90;999.90;;;;;;;4.28;100.00;97647.22;5042809;28;20026;-86
2022/12/07 05:52:42;;;;;;;1999.90;999.90;;;;;;;4.19;100.00;97642.56;5045046;28;20033;-81
2022/12/07 05:55:08;;;;;;;1999.90;999.90;;;;;;;4.13;100.00;97644.44;5041752;28;20076;-83
2022/12/07 05:57:33;;;;;;;1999.90;999.90;;;;;;;4.26;100.00;97660.19;5038684;28;20021;-84
2022/12/07 05:59:59;;;;;;;1999.90;999.90;;;;;;;4.24;100.00;97661.53;5044088;28;20028;-81
2022/12/07 06:02:24;;;;;;;1999.90;999.90;;;;;;;4.25;100.00;97664.00;5060863;28;20029;-81
2022/12/07 06:04:49;;;;;;;1999.90;999.90;;;;;;;4.28;100.00;97668.88;5054782;28;20049;-76
2022/12/07 06:07:16;;;;;;;1999.90;999.90;;;;;;;4.28;100.00;97676.19;5054028;28;20028;-75
2022/12/07 06:09:41;;;;;;;1999.90;999.90;;;;;;;4.25;100.00;97674.81;5061823;28;20029;-81
2022/12/07 06:14:54;;;;;;;1999.90;999.90;;;;;;;4.29;100.00;97670.50;5056618;28;20123;-83
2022/12/07 06:17:19;;;;;;;1999.90;999.90;;;;;;;4.12;100.00;97658.22;5057907;28;20056;-83
2022/12/07 06:19:45;;;;;;;1999.90;999.90;;;;;;;4.19;100.00;97675.88;5059671;28;20111;-78
2022/12/07 06:22:11;;;;;;;1999.90;999.90;;;;;;;4.05;100.00;97665.75;5066429;28;20084;-82
2022/12/07 06:24:37;;;;;;;1999.90;999.90;;;;;;;4.04;100.00;97678.47;5064247;28;20481;-82
2022/12/07 06:27:03;;;;;;;1999.90;999.90;;;;;;;3.98;100.00;97663.25;5066444;28;20405;-83
2022/12/07 06:29:28;;;;;;;1999.90;999.90;;;;;;;4.06;100.00;97679.03;5065226;28;20093;-83
2022/12/07 06:31:54;;;;;;;1999.90;999.90;;;;;;;4.11;100.00;97673.63;5064438;28;20025;-83
2022/12/07 06:34:22;;;;;;;1999.90;999.90;;;;;;;4.09;100.00;97677.69;5064950;28;20088;-83
2022/12/07 06:36:51;;;;;;;1999.90;999.90;;;;;;;4.05;100.00;97676.56;5065311;28;20029;-81
2022/12/07 06:39:20;;;;;;;1999.90;999.90;;;;;;;4.06;100.00;97689.84;5065492;28;20037;-80
2022/12/07 06:41:45;;;;;;;1999.90;999.90;;;;;;;4.18;100.00;97687.75;5060915;28;20393;-78
2022/12/07 06:44:10;;;;;;;1999.90;999.90;;;;;;;4.10;100.00;97688.25;5054055;28;20036;-86
2022/12/07 06:46:38;;;;;;;1999.90;999.90;;;;;;;4.10;100.00;97685.53;5044764;28;20018;-85
2022/12/07 06:49:04;;;;;;;1999.90;999.90;;;;;;;4.10;100.00;97682.81;5035878;28;20030;-78
2022/12/07 06:51:30;;;;;;;1999.90;999.90;;;;;;;4.06;100.00;97681.75;5033793;28;20025;-83
2022/12/07 06:53:56;;;;;;;1999.90;999.90;;;;;;;4.02;100.00;97677.91;5034114;28;20033;-80
2022/12/07 06:56:22;;;;;;;1999.90;999.90;;;;;;;4.06;100.00;97680.91;5035090;28;20093;-85
2022/12/07 06:58:48;;;;;;;1999.90;999.90;;;;;;;4.08;100.00;97685.00;5035024;28;20026;-82
2022/12/07 07:01:16;;;;;;;1999.90;999.90;;;;;;;4.18;100.00;97689.66;5036485;28;20022;-85
2022/12/07 07:03:42;;;;;;;1999.90;999.90;;;;;;;4.15;100.00;97684.75;5045352;28;20025;-79
2022/12/07 07:06:08;;;;;;;1999.90;999.90;;;;;;;4.11;100.00;97687.16;5051282;28;20045;-81
2022/12/07 07:08:34;;;;;;;1999.90;999.90;;;;;;;4.13;100.00;97685.03;5053045;28;20516;-80
2022/12/07 07:11:00;;;;;;;1999.90;999.90;;;;;;;4.16;100.00;97687.22;5052499;28;20045;-81
2022/12/07 07:13:26;;;;;;;1999.90;999.90;;;;;;;4.22;100.00;97697.00;5055432;28;20040;-82
2022/12/07 07:15:51;;;;;;;1999.90;999.90;;;;;;;4.26;100.00;97687.25;5056269;28;20432;-77
2022/12/07 07:18:17;;;;;;;1999.90;999.90;;;;;;;4.32;100.00;97702.47;5058875;28;20036;-81
2022/12/07 07:20:42;;;;;;;1999.90;999.90;;;;;;;4.25;100.00;97685.66;5064139;28;20048;-84
2022/12/07 07:23:07;;;;;;;1999.90;999.90;;;;;;;4.16;100.00;97684.50;5066231;28;20053;-83
2022/12/07 07:25:33;;;;;;;1999.90;999.90;;;;;;;4.26;100.00;97698.09;5067267;28;20021;-84
2022/12/07 07:27:59;;;;;;;1999.90;999.90;;;;;;;4.24;100.00;97694.84;5065531;28;20087;-81
2022/12/07 07:30:25;;;;;;;1999.90;999.90;;;;;;;4.17;100.00;97698.84;5064174;28;20093;-85
2022/12/07 07:32:50;;;;;;;1999.90;999.90;;;;;;;4.10;100.00;97701.78;5063823;28;20502;-82
2022/12/07 07:35:16;;;;;;;1999.90;999.90;;;;;;;4.11;100.00;97705.28;5065833;28;20544;-77
2022/12/07 07:37:41;;;;;;;1999.90;999.90;;;;;;;4.10;100.00;97701.78;5062926;28;20040;-83
2022/12/07 07:40:08;;;;;;;1999.90;999.90;;;;;;;4.13;100.00;97695.03;5061770;28;20108;-83
2022/12/07 07:42:33;;;;;;;1999.90;999.90;;;;;;;4.12;100.00;97707.75;5066314;28;20496;-82
2022/12/07 07:44:58;;;;;;;1999.90;999.90;;;;;;;3.95;100.00;97692.72;5064699;28;20078;-82
2022/12/07 07:47:24;;;;;;;1999.90;999.90;;;;;;;4.06;100.00;97710.69;5066649;28;20035;-84
2022/12/07 07:49:49;;;;;;;1999.90;999.90;;;;;;;4.20;100.00;97723.50;5065112;28;20017;-81
2022/12/07 07:52:14;;;;;;;1999.90;999.90;;;;;;;4.30;100.00;97718.16;5064778;28;20473;-84
2022/12/07 07:54:40;;;;;;;1999.90;999.90;;;;;;;4.30;100.00;97715.44;5066291;28;20060;-81
2022/12/07 07:57:05;;;;;;;1999.90;999.90;;;;;;;4.30;100.00;97717.34;5065639;28;20040;-83
2022/12/07 07:59:30;;;;;;;1999.90;999.90;;;;;;;4.28;100.00;97714.91;5065072;28;20025;-82
2022/12/07 08:01:56;;;;;;;1999.90;999.90;;;;;;;4.31;100.00;97717.09;5065487;28;20025;-84
2022/12/07 08:04:21;;;;;;;1999.90;999.90;;;;;;;4.41;100.00;97715.53;5065952;28;20032;-82
2022/12/07 08:06:47;;;;;;;1999.90;999.90;;;;;;;4.32;100.00;97723.31;5065490;28;20025;-79
2022/12/07 08:09:12;;;;;;;1999.90;999.90;;;;;;;4.07;100.00;97718.53;5066584;28;20100;-83
2022/12/07 08:11:37;;;;;;;1999.90;999.90;;;;;;;4.20;100.00;97730.78;5069242;28;20029;-85
2022/12/07 08:14:03;;;;;;;1999.90;999.90;;;;;;;4.06;100.00;97730.44;5071360;28;20034;-84
2022/12/07 08:16:29;;;;;;;1999.90;999.90;;;;;;;4.07;100.00;97725.84;5071904;28;20493;-82
2022/12/07 08:18:54;;;;;;;1999.90;999.90;;;;;;;4.07;100.00;97729.34;5069038;28;20088;-84
2022/12/07 08:21:20;;;;;;;1999.90;999.90;;;;;;;4.10;100.00;97722.63;5069585;28;20025;-82
2022/12/07 08:23:45;;;;;;;1999.90;999.90;;;;;;;4.01;100.00;97711.44;5071092;28;20025;-82
2022/12/07 08:26:13;;;;;;;1999.90;999.90;;;;;;;4.10;100.00;97734.25;5067928;28;20025;-82
2022/12/07 08:28:39;;;;;;;1999.90;999.90;;;;;;;4.10;100.00;97742.34;5066286;28;20033;-80
2022/12/07 08:31:08;;;;;;;1999.90;999.90;;;;;;;4.16;100.00;97743.25;5066141;28;20031;-82
2022/12/07 08:33:35;;;;;;;1999.90;999.90;;;;;;;4.24;100.00;97738.16;5067026;28;20033;-86
2022/12/07 08:36:09;;;;;;;1999.90;999.90;;;;;;;4.32;100.00;97745.78;5068633;28;20032;-82
2022/12/07 08:38:36;;;;;;;1999.90;999.90;;;;;;;4.43;100.00;97751.25;5073764;28;20032;-86
2022/12/07 08:41:02;;;;;;;1999.90;999.90;;;;;;;4.47;100.00;97741.53;5086036;28;20021;-87
2022/12/07 08:43:27;;;;;;;1999.90;999.90;;;;;;;4.52;100.00;97728.03;5078805;28;20024;-85
2022/12/07 08:46:08;;;;;;;1999.90;999.90;;;;;;;4.78;100.00;97754.19;5088485;28;20027;-83
2022/12/07 08:48:38;;;;;;;1999.90;999.90;;;;;;;4.79;100.00;97761.25;5093914;28;20043;-89
2022/12/07 08:51:04;;;;;;;1999.90;999.90;;;;;;;4.99;100.00;97758.63;5093397;28;20020;-85
2022/12/07 08:53:33;;;;;;;1999.90;999.90;;;;;;;5.14;100.00;97755.16;5091022;28;20032;-81
2022/12/07 08:55:58;;;;;;;1999.90;999.90;;;;;;;5.11;100.00;97753.78;5093235;28;20025;-84
2022/12/07 08:58:25;;;;;;;1999.90;999.90;;;;;;;5.16;100.00;97744.88;5091997;28;20056;-84
2022/12/07 09:00:50;;;;;;;1999.90;999.90;;;;;;;5.21;100.00;97745.69;5072922;28;20048;-83
2022/12/07 09:03:16;;;;;;;1999.90;999.90;;;;;;;5.28;100.00;97735.41;5071272;28;20032;-84
2022/12/07 09:05:41;;;;;;;1999.90;999.90;;;;;;;5.43;100.00;97744.66;5072086;28;20060;-82
2022/12/07 09:08:07;;;;;;;1999.90;999.90;;;;;;;5.46;100.00;97744.13;5071162;28;20099;-85
2022/12/07 09:10:33;;;;;;;1999.90;999.90;;;;;;;5.54;100.00;97751.75;5070019;28;20057;-82
2022/12/07 09:13:01;;;;;;;1999.90;999.90;;;;;;;5.69;100.00;97751.78;5067961;28;20025;-81
2022/12/07 09:15:31;;;;;;;1999.90;999.90;;;;;;;5.73;100.00;97759.09;5070247;28;20120;-84
2022/12/07 09:17:56;;;;;;;1999.90;999.90;;;;;;;5.97;100.00;97764.06;5070190;28;20013;-85
2022/12/07 09:20:22;;;;;;;1999.90;999.90;;;;;;;6.22;100.00;97755.94;5069962;28;20021;-84
2022/12/07 09:22:47;;;;;;;1999.90;999.90;;;;;;;6.39;100.00;97770.84;5068340;28;20060;-83
2022/12/07 09:25:12;;;;;;;1999.90;999.90;;;;;;;6.56;100.00;97758.88;5067823;28;20025;-83
2022/12/07 09:27:38;;;;;;;1999.90;999.90;;;;;;;6.63;100.00;97767.56;5066976;28;20505;-83
2022/12/07 09:30:05;;;;;;;1999.90;999.90;;;;;;;6.55;100.00;97763.47;5068587;28;20029;-85
2022/12/07 09:32:30;;;;;;;1999.90;999.90;;;;;;;6.59;100.00;97766.47;5066642;28;20056;-86
2022/12/07 09:34:55;;;;;;;1999.90;999.90;;;;;;;6.46;100.00;97768.66;5067409;28;20033;-83
2022/12/07 09:37:21;;;;;;;1999.90;999.90;;;;;;;6.40;100.00;97760.78;5069514;28;20054;-86
2022/12/07 09:39:46;;;;;;;1999.90;999.90;;;;;;;6.45;100.00;97764.31;5068089;28;20388;-82
2022/12/07 09:42:24;;;;;;;1999.90;999.90;;;;;;;6.52;100.00;97757.78;5069569;28;20021;-86
2022/12/07 09:44:49;;;;;;;1999.90;999.90;;;;;;;6.83;100.00;97767.50;5069086;28;20029;-80
2022/12/07 09:47:14;;;;;;;1999.90;999.90;;;;;;;7.39;100.00;97755.31;5067017;28;20059;-83
2022/12/07 09:49:40;;;;;;;1999.90;999.90;;;;;;;7.40;100.00;97762.41;5066756;28;20028;-82
2022/12/07 09:52:08;;;;;;;1999.90;999.90;;;;;;;7.32;100.00;97762.19;5066195;28;21547;-83
2022/12/07 09:54:36;;;;;;;1999.90;999.90;;;;;;;7.30;100.00;97751.56;5065768;28;20036;-84
2022/12/07 09:57:03;;;;;;;1999.90;999.90;;;;;;;7.85;100.00;97745.00;5064075;28;20029;-83
2022/12/07 09:59:28;;;;;;;1999.90;999.90;;;;;;;8.86;100.00;97746.03;5064566;28;20032;-82
2022/12/07 10:01:55;;;;;;;1999.90;999.90;;;;;;;9.50;98.71;97760.00;5065786;28;20033;-82
2022/12/07 10:04:24;;;;;;;1999.90;999.90;;;;;;;9.83;95.54;97752.72;5065852;28;20025;-83
2022/12/07 10:06:51;;;;;;;1999.90;999.90;;;;;;;10.43;92.07;97750.97;5066067;28;20025;-83
2022/12/07 10:09:18;;;;;;;1999.90;999.90;;;;;;;10.92;88.50;97742.16;5066345;28;20036;-84
2022/12/07 10:12:04;;;;;;;1999.90;999.90;;;;;;;11.52;84.19;97751.09;5066354;28;20024;-85
2022/12/07 10:14:31;;;;;;;1999.90;999.90;;;;;;;11.51;83.65;97743.97;5066466;28;20060;-82
2022/12/07 10:16:57;;;;;;;1999.90;999.90;;;;;;;11.81;81.68;97753.47;5067267;28;20083;-83
2022/12/07 10:19:30;;;;;;;1999.90;999.90;;;;;;;11.53;82.73;97749.13;5059708;28;20024;-83
2022/12/07 10:22:03;;;;;;;1999.90;999.90;;;;;;;10.97;82.12;97738.50;5057296;28;20040;-84
2022/12/07 10:24:29;;;;;;;1999.90;999.90;;;;;;;10.49;85.34;97744.31;5062560;28;20036;-84
2022/12/07 10:26:54;;;;;;;1999.90;999.90;;;;;;;11.56;81.23;97734.84;5065206;28;20025;-91
2022/12/07 10:29:39;;;;;;;1999.90;999.90;;;;;;;12.38;74.81;97735.41;5062427;28;20025;-83
2022/12/07 10:32:13;;;;;;;1999.90;999.90;;;;;;;13.67;69.45;97730.50;5061860;28;20086;-90
2022/12/07 10:34:39;;;;;;;1999.90;999.90;;;;;;;13.92;67.49;97716.00;5062518;28;20036;-85
2022/12/07 10:37:15;;;;;;;1999.90;999.90;;;;;;;15.54;61.58;97730.53;5062195;28;20112;-82
2022/12/07 10:39:49;;;;;;;1999.90;999.90;;;;;;;15.56;60.05;97731.03;5063972;28;20025;-84
2022/12/07 10:42:30;;;;;;;1999.90;999.90;;;;;;;14.07;62.53;97709.19;5060558;28;20017;-84
2022/12/07 10:45:15;;;;;;;1999.90;999.90;;;;;;;13.19;65.28;97709.38;5073664;28;20028;-85
2022/12/07 10:48:09;;;;;;;1999.90;999.90;;;;;;;13.41;65.62;97713.97;5066331;28;20021;-86
2022/12/07 10:50:40;;;;;;;1999.90;999.90;;;;;;;13.19;66.90;97709.38;5063338;28;20479;-89
2022/12/07 10:53:26;;;;;;;1999.90;999.90;;;;;;;12.89;69.51;97712.94;5061684;28;20037;-85
2022/12/07 10:56:14;;;;;;;1999.90;999.90;;;;;;;13.24;66.97;97717.50;5058841;28;20123;-82
2022/12/07 10:59:15;;;;;;;1999.90;999.90;;;;;;;12.99;68.11;97707.19;5063567;28;20032;-82
2022/12/07 11:01:52;;;;;;;1999.90;999.90;;;;;;;12.60;68.34;97696.97;5059436;28;20040;-89
2022/12/07 11:04:41;;;;;;;1999.90;999.90;;;;;;;11.69;71.95;97701.94;5062257;28;20063;-84
2022/12/07 11:07:22;;;;;;;1999.90;999.90;;;;;;;10.69;75.44;97691.97;5067236;28;20040;-81